createdAt,value
2023-04-16T00:04:33.175Z,100038.91
2023-04-16T00:09:35.503Z,100009.25
2023-04-16T00:14:37.573Z,100008.69
2023-04-16T00:19:39.781Z,100004.75
2023-04-16T00:24:42.394Z,99994.44
2023-04-16T00:29:44.584Z,99989.09
2023-04-16T00:34:46.706Z,99989.94
2023-04-16T00:39:48.903Z,99976.47
2023-04-16T00:44:51.247Z,99855.66
2023-04-16T00:49:53.462Z,99824.97
2023-04-16T00:54:56.854Z,99827.38
2023-04-16T00:59:59.380Z,99921.16
2023-04-16T01:05:02.302Z,99934.69
2023-04-16T01:10:05.030Z,99961.38
2023-04-16T01:15:08.186Z,99900.75
2023-04-16T01:20:10.826Z,99882.69
2023-04-16T01:25:16.658Z,99947.44
2023-04-16T01:30:19.151Z,99919.03
2023-04-16T01:35:21.305Z,100025.19
2023-04-16T01:40:23.476Z,100006.69
2023-04-16T01:45:25.936Z,99987.19
2023-04-16T01:50:28.780Z,100011.56
2023-04-16T01:55:31.947Z,99985.56
2023-04-16T02:00:34.174Z,99984.50
2023-04-16T02:05:36.290Z,99974.84
2023-04-16T02:10:38.371Z,99966.38
2023-04-16T02:15:40.583Z,99941.50
2023-04-16T02:20:44.059Z,99897.72
2023-04-16T02:25:47.654Z,99917.81
2023-04-16T02:30:49.805Z,99935.09
2023-04-16T02:35:51.985Z,99877.47
2023-04-16T02:40:54.127Z,99932.28
2023-04-16T02:45:56.365Z,99865.00
2023-04-16T02:50:58.722Z,99908.16
2023-04-16T02:56:01.092Z,99827.34
2023-04-16T03:01:03.582Z,99882.38
2023-04-16T03:06:05.905Z,99931.78
2023-04-16T03:11:08.190Z,99951.31
2023-04-16T03:16:10.443Z,99903.66
2023-04-16T03:21:12.672Z,99986.97
2023-04-16T03:26:14.872Z,99930.50
2023-04-16T03:31:17.363Z,99908.53
2023-04-16T03:36:19.859Z,99903.50
2023-04-16T03:41:22.113Z,99930.34
2023-04-16T03:46:24.359Z,99954.88
2023-04-16T03:51:26.883Z,99883.53
2023-04-16T03:56:29.130Z,99958.47
2023-04-16T04:01:31.490Z,99920.25
2023-04-16T04:06:33.936Z,99871.75
2023-04-16T04:11:36.234Z,99887.88
2023-04-16T04:16:38.525Z,99958.19
2023-04-16T04:21:40.788Z,99962.63
2023-04-16T04:26:43.106Z,99946.31
2023-04-16T04:31:45.452Z,100029.50
2023-04-16T04:36:47.877Z,99986.47
2023-04-16T04:41:50.116Z,100003.38
2023-04-16T04:46:52.338Z,100024.25
2023-04-16T04:51:54.493Z,99876.16
2023-04-16T04:56:56.991Z,99949.53
2023-04-16T05:01:59.160Z,99942.03
2023-04-16T05:07:02.764Z,99930.22
2023-04-16T05:12:05.103Z,99901.88
2023-04-16T05:17:08.348Z,99914.66
2023-04-16T05:22:10.581Z,99945.75
2023-04-16T05:27:12.890Z,99958.06
2023-04-16T05:32:15.292Z,99993.66
2023-04-16T05:37:17.470Z,100061.81
2023-04-16T05:42:19.709Z,99984.66
2023-04-16T05:47:21.997Z,99907.31
2023-04-16T05:52:24.227Z,99957.44
2023-04-16T05:57:26.501Z,100001.66
2023-04-16T06:02:30.853Z,99999.78
2023-04-16T06:07:33.146Z,99991.28
2023-04-16T06:12:35.673Z,100029.56
2023-04-16T06:17:37.890Z,99878.00
2023-04-16T06:22:40.153Z,99970.44
2023-04-16T06:27:42.354Z,99937.38
2023-04-16T06:32:44.913Z,99931.22
2023-04-16T06:37:47.506Z,99971.06
2023-04-16T06:42:49.821Z,100050.34
2023-04-16T06:47:52.820Z,99988.69
2023-04-16T06:52:56.039Z,100035.13
2023-04-16T06:57:58.309Z,99904.56
2023-04-16T07:03:02.933Z,99902.13
2023-04-16T07:08:05.309Z,100016.28
2023-04-16T07:13:07.678Z,99915.88
2023-04-16T07:18:10.056Z,99953.09
2023-04-16T07:23:12.489Z,99934.06
2023-04-16T07:28:17.073Z,99992.91
2023-04-16T07:33:19.211Z,100010.47
2023-04-16T07:38:21.467Z,99990.50
2023-04-16T07:43:23.666Z,99989.56
2023-04-16T07:48:26.495Z,100039.25
2023-04-16T07:53:28.652Z,100004.22
2023-04-16T07:58:30.737Z,100023.13
2023-04-16T08:03:33.537Z,99998.69
2023-04-16T08:08:35.790Z,100027.84
2023-04-16T08:13:38.027Z,100042.84
2023-04-16T08:18:40.092Z,99973.69
2023-04-16T08:23:42.407Z,99978.88
2023-04-16T08:28:44.534Z,100028.69
2023-04-16T08:33:46.718Z,100035.19
2023-04-16T08:38:48.843Z,99990.81
2023-04-16T08:43:56.699Z,99998.94
2023-04-16T08:49:02.049Z,100004.59
2023-04-16T08:54:06.026Z,100021.81
2023-04-16T08:59:09.931Z,100007.03
2023-04-16T09:04:14.446Z,100018.75
2023-04-16T09:09:18.074Z,100028.97
2023-04-16T09:14:20.667Z,100024.28
2023-04-16T09:19:24.004Z,100010.72
2023-04-16T09:24:26.628Z,100017.53
2023-04-16T09:29:36.579Z,99983.66
2023-04-16T09:35:02.105Z,100011.78
2023-04-16T09:40:06.287Z,100013.47
2023-04-16T09:45:08.799Z,100012.59
2023-04-16T09:50:18.136Z,99964.88
2023-04-16T09:55:27.565Z,99976.53
2023-04-16T10:00:32.260Z,99985.50
2023-04-16T10:05:34.602Z,99939.34
2023-04-16T10:10:37.051Z,99968.28
2023-04-16T10:15:42.560Z,99961.31
2023-04-16T10:20:45.222Z,99940.03
2023-04-16T10:25:49.390Z,99951.44
2023-04-16T10:30:55.746Z,99954.66
2023-04-16T10:36:12.383Z,99948.94
2023-04-16T10:41:14.962Z,99929.34
2023-04-16T10:46:30.906Z,99937.69
2023-04-16T10:51:35.219Z,99895.53
2023-04-16T10:56:38.744Z,99953.97
2023-04-16T11:01:45.253Z,99924.97
2023-04-16T11:07:14.482Z,99961.03
2023-04-16T11:12:18.873Z,99968.91
2023-04-16T11:17:22.201Z,99970.75
2023-04-16T11:22:24.856Z,99899.84
2023-04-16T11:27:27.699Z,99944.91
2023-04-16T11:32:33.431Z,99949.09
2023-04-16T11:37:37.351Z,99936.53
2023-04-16T11:42:42.209Z,99952.56
2023-04-16T11:47:50.606Z,99958.81
2023-04-16T11:52:55.584Z,99933.03
2023-04-16T11:58:00.475Z,99890.69
2023-04-16T12:03:03.834Z,99907.66
2023-04-16T12:08:10.590Z,99917.41
2023-04-16T12:13:14.534Z,99900.66
2023-04-16T12:18:17.990Z,99864.13
2023-04-16T12:23:25.199Z,99872.31
2023-04-16T12:28:30.214Z,99855.94
2023-04-16T12:33:32.868Z,99859.22
2023-04-16T12:38:35.023Z,99829.25
2023-04-16T12:43:37.342Z,99853.19
2023-04-16T12:48:39.534Z,99800.91
2023-04-16T12:53:41.979Z,99845.59
2023-04-16T12:58:44.282Z,99837.34
2023-04-16T13:03:47.522Z,99828.66
2023-04-16T13:08:49.860Z,99811.38
2023-04-16T13:13:52.163Z,99811.16
2023-04-16T13:18:54.572Z,99785.31
2023-04-16T13:23:56.962Z,99775.25
2023-04-16T13:28:59.287Z,99750.19
2023-04-16T13:34:02.145Z,99727.75
2023-04-16T13:39:11.761Z,99757.19
2023-04-16T13:44:14.056Z,99758.44
2023-04-16T13:49:16.518Z,99789.38
2023-04-16T13:54:18.608Z,99780.69
2023-04-16T13:59:21.077Z,99793.22
2023-04-16T14:04:23.784Z,99764.56
2023-04-16T14:09:27.357Z,99763.31
2023-04-16T14:14:29.545Z,99789.59
2023-04-16T14:19:31.707Z,99812.81
2023-04-16T14:24:33.865Z,99771.31
2023-04-16T14:29:36.806Z,99794.16
2023-04-16T14:34:38.914Z,99758.06
2023-04-16T14:39:41.458Z,99794.88
2023-04-16T14:44:43.603Z,99801.97
2023-04-16T14:49:46.069Z,99791.84
2023-04-16T14:54:48.452Z,99750.44
2023-04-16T14:59:50.912Z,99795.38
2023-04-16T15:04:53.894Z,99761.31
2023-04-16T15:09:56.170Z,99777.41
2023-04-16T15:15:00.834Z,99789.41
2023-04-16T15:20:06.875Z,99770.03
2023-04-16T15:25:09.477Z,99749.31
2023-04-16T15:30:12.946Z,99739.78
2023-04-16T15:35:15.141Z,99785.88
2023-04-16T15:40:19.086Z,99770.84
2023-04-16T15:45:21.590Z,99778.50
2023-04-16T15:50:24.043Z,99746.91
2023-04-16T15:55:26.777Z,99750.16
2023-04-16T16:00:28.929Z,99783.69
2023-04-16T16:05:31.285Z,99780.38
2023-04-16T16:10:33.451Z,99784.44
2023-04-16T16:15:35.751Z,99786.91
2023-04-16T16:20:38.737Z,99783.88
2023-04-16T16:25:42.417Z,99767.66
2023-04-16T16:30:45.291Z,99779.13
2023-04-16T16:35:47.577Z,99748.59
2023-04-16T16:40:49.793Z,99788.16
2023-04-16T16:45:52.786Z,99758.16
2023-04-16T16:50:54.948Z,99743.66
2023-04-16T16:55:57.183Z,99790.78
2023-04-16T17:01:00.831Z,99809.78
2023-04-16T17:06:03.289Z,99795.38
2023-04-16T17:11:05.425Z,99797.25
2023-04-16T17:16:07.816Z,99826.13
2023-04-16T17:21:10.040Z,99793.78
2023-04-16T17:26:12.174Z,99815.34
2023-04-16T17:31:15.656Z,99792.78
2023-04-16T17:36:19.883Z,99801.81
2023-04-16T17:41:22.058Z,99794.50
2023-04-16T17:46:24.278Z,99804.09
2023-04-16T17:51:27.738Z,99845.31
2023-04-16T17:56:29.940Z,99785.66
2023-04-16T18:01:32.304Z,99718.53
2023-04-16T18:06:34.515Z,99756.19
2023-04-16T18:11:37.737Z,99820.75
2023-04-16T18:16:40.005Z,99776.19
2023-04-16T18:21:42.899Z,99834.25
2023-04-16T18:26:46.973Z,99786.47
2023-04-16T18:31:51.663Z,99788.94
2023-04-16T18:36:54.318Z,99814.00
2023-04-16T18:41:57.068Z,99844.22
2023-04-16T18:46:59.304Z,99781.22
2023-04-16T18:52:02.743Z,99848.78
2023-04-16T18:57:05.173Z,99811.41
2023-04-16T19:02:07.798Z,99844.50
2023-04-16T19:07:09.994Z,99801.00
2023-04-16T19:12:12.313Z,99867.34
2023-04-16T19:17:14.656Z,99818.78
2023-04-16T19:22:16.776Z,99939.69
2023-04-16T19:27:19.541Z,99925.09
2023-04-16T19:32:21.873Z,99943.81
2023-04-16T19:37:24.297Z,99855.69
2023-04-16T19:42:26.761Z,99893.41
2023-04-16T19:47:29.143Z,99937.72
2023-04-16T19:52:37.620Z,99948.06
2023-04-16T19:57:40.787Z,99801.31
2023-04-16T20:02:43.107Z,99886.69
2023-04-16T20:07:45.386Z,99804.28
2023-04-16T20:12:48.674Z,99850.72
2023-04-16T20:17:51.121Z,99870.75
2023-04-16T20:22:53.431Z,99871.84
2023-04-16T20:27:55.778Z,99899.72
2023-04-16T20:32:58.803Z,99848.06
2023-04-16T20:38:01.841Z,99849.31
2023-04-16T20:43:04.328Z,99870.28
2023-04-16T20:48:06.820Z,99858.78
2023-04-16T20:53:09.107Z,99855.97
2023-04-16T20:58:11.554Z,99894.66
2023-04-16T21:03:14.006Z,99908.25
2023-04-16T21:08:20.967Z,99921.84
2023-04-16T21:13:23.162Z,99818.66
2023-04-16T21:18:25.374Z,99815.88
2023-04-16T21:23:27.746Z,99881.19
2023-04-16T21:28:29.927Z,99872.97
2023-04-16T21:33:32.249Z,99835.53
2023-04-16T21:38:34.491Z,99783.00
2023-04-16T21:43:36.689Z,99835.50
2023-04-16T21:48:38.866Z,99743.25
2023-04-16T21:53:41.078Z,99791.41
2023-04-16T21:58:43.273Z,99895.31
2023-04-16T22:03:47.521Z,99891.19
2023-04-16T22:08:50.282Z,99909.81
2023-04-16T22:13:52.473Z,99895.50
2023-04-16T22:18:55.276Z,99888.53
2023-04-16T22:23:57.447Z,99881.00
2023-04-16T22:28:59.606Z,99875.16
2023-04-16T22:34:03.349Z,99894.19
2023-04-16T22:39:08.887Z,99873.84
2023-04-16T22:44:11.255Z,99851.06
2023-04-16T22:49:14.193Z,99888.66
2023-04-16T22:54:18.474Z,99883.00
2023-04-16T22:59:20.829Z,99831.13
2023-04-16T23:04:23.072Z,99796.00
2023-04-16T23:09:26.119Z,99847.47
2023-04-16T23:14:28.345Z,99749.91
2023-04-16T23:19:32.270Z,99764.94
2023-04-16T23:24:34.572Z,99763.13
2023-04-16T23:29:36.827Z,99736.72
2023-04-16T23:34:38.989Z,99708.94
2023-04-16T23:39:41.367Z,99746.81
2023-04-16T23:44:43.508Z,99728.06
2023-04-16T23:49:45.876Z,99749.88
2023-04-16T23:54:48.082Z,99776.81
2023-04-16T23:59:50.412Z,99822.38
